logo
Search for airport 
image banner adimage banner adimage banner ad
image banner ad

SGEJAG - Estancia Jaguarete

Located in Puesto Pa, Paraguay

ICAO - , IATA -

Data provided by Airmate  

General information

Coordinates: S22°34'42" W56°45'32"
Elevation is 533 feet MSL.
Magnetic variation is -16° East
View others Airports in Amambay Department

Operational data

Special qualification required
Current time UTC:
Current local time:
Weather at : - ( 0 km )
METAR: KGEU 171351Z 21010KT 10SM FEW090 32/16 A2988
View NOTAMs / SUP AIP / TFR affecting this airport [VIEW]
Communications frequencies: [VIEW]

Runways:

RWY identifierQFULength (ft)Width (ft)SurfaceLDA (ft)
023943155GRAS
20182°3943155GRAS

Airport contact information

Address: Puesto Pa Paraguay

Satellite view of SGEJAG